Thunder radar more information blitzortung!


avis per Pluja more information rain snow radar


Visita la nostra xarxa de llocs de meteo:

Template documentation
and downloads

And another site



Rain From: 18-11-2018 11:00 Until: 20:59 warning for: Rain Level: Yellow info button

Pagina Historial Weather Underground text

Diari Resum January 4, 2018 Unitats:  Imperial    Mètric   Tant
« Previous Dia
SegĂźent Dia »
Diari Setmana Mensual Anual Personalitzada
  Maxima: Minima: Media:
Temperatura: TemperatureF °F 51.1 °F 63 °F
Punt de rosada: DewpointF °F 35.9 °F 44.6 °F
Humitat: Humidity % 43 % 51 %
Wind Speed: WindSpeedMPH mph 0.0 mph 6.4 mph
RĂ fegues de vent: WindSpeedGustMPH mph - -
Vent:- - WSW
Pression baro: PressureIn in 29.91 in -
Precipitacions: 0.00 in    
Historical Graphs
 
 
Dades de taula per January 4, 2018
Temps Temperatura Punt de rosada Pression baro Vent Wind Speed RĂ fegues de vent Humitat Rainfall Rate (Hourly)
TemperatureF °F DewpointF °F PressureIn in Calm     Humidity % HourlyPrecipIn in
00:00 60.3 °F 48.4 °F 30.09 in West 7.0 mph 8.0 mph 65 % 0.00 in
00:01 60.3 °F 47.6 °F 30.18 in WSW 6.9 mph 6.9 mph 63 % 0.00 in
00:04 60.3 °F 47.6 °F 30.18 in WSW 5.6 mph 5.6 mph 63 % 0.00 in
00:10 60.1 °F 48.3 °F 30.12 in West 6.0 mph 8.0 mph 65 % 0.00 in
00:20 60.1 °F 48.3 °F 30.12 in West 3.0 mph 6.0 mph 65 % 0.00 in
00:30 60.1 °F 48.3 °F 30.12 in West 3.0 mph 6.0 mph 65 % 0.00 in
00:40 59.9 °F 48.1 °F 30.12 in West 5.0 mph 6.0 mph 65 % 0.00 in
01:00 59.5 °F 47.8 °F 30.12 in West 3.0 mph 4.0 mph 65 % 0.00 in
01:20 59.4 °F 47.6 °F 30.09 in WNW 6.0 mph 7.0 mph 65 % 0.00 in
01:30 59.4 °F 48.0 °F 30.09 in WSW 2.0 mph 6.0 mph 66 % 0.00 in
01:40 59.4 °F 48.0 °F 30.12 in West 3.0 mph 6.0 mph 66 % 0.00 in
01:50 59.2 °F 47.8 °F 30.09 in WNW 2.0 mph 4.0 mph 66 % 0.00 in
02:00 59.0 °F 47.2 °F 30.09 in WNW 2.0 mph 5.0 mph 65 % 0.00 in
02:10 58.6 °F 47.3 °F 30.12 in West 1.0 mph 3.0 mph 66 % 0.00 in
02:20 58.5 °F 47.1 °F 30.12 in WNW 1.0 mph 4.0 mph 66 % 0.00 in
02:30 58.3 °F 47.0 °F 30.12 in WNW 1.0 mph 3.0 mph 66 % 0.00 in
02:40 58.3 °F 47.0 °F 30.12 in West 2.0 mph 4.0 mph 66 % 0.00 in
02:50 58.3 °F 47.0 °F 30.12 in West 3.0 mph 3.0 mph 66 % 0.00 in
03:10 59.0 °F 47.7 °F 30.15 in WSW 2.0 mph 3.0 mph 66 % 0.00 in
03:30 60.3 °F 48.4 °F 30.15 in West 2.0 mph 4.0 mph 65 % 0.00 in
03:50 60.8 °F 48.5 °F 30.15 in SW 5.0 mph 6.0 mph 64 % 0.00 in
04:00 61.2 °F 48.9 °F 30.15 in SW 2.0 mph 6.0 mph 64 % 0.00 in
10:06 62.1 °F 49.3 °F 30.15 in ENE 8.1 mph 8.1 mph 63 % 0.00 in
10:07 62.1 °F 49.3 °F 30.15 in NW 8.1 mph 8.1 mph 63 % 0.00 in
10:08 62.1 °F 49.3 °F 30.15 in NNW 8.1 mph 8.1 mph 63 % 0.00 in
10:09 62.1 °F 49.3 °F 30.15 in NE 3.5 mph 3.5 mph 63 % 0.00 in
10:14 62.2 °F 49.5 °F 30.15 in NNE 2.6 mph 2.6 mph 63 % 0.00 in
10:15 61.9 °F 48.7 °F 30.15 in NE 2.3 mph 2.3 mph 62 % 0.00 in
10:20 61.3 °F 48.2 °F 30.15 in NNE 4.6 mph 4.6 mph 62 % 0.00 in
10:23 61.3 °F 48.2 °F 30.15 in NE 3.5 mph 3.5 mph 62 % 0.00 in
10:28 61.9 °F 48.7 °F 30.15 in NE 3.5 mph 3.5 mph 62 % 0.00 in
10:30 62.1 °F 48.9 °F 30.15 in West 6.4 mph 6.4 mph 62 % 0.00 in
10:35 62.8 °F 49.1 °F 30.15 in SSW 5.8 mph 5.8 mph 61 % 0.00 in
10:37 63.0 °F 49.3 °F 30.15 in WNW 4.6 mph 4.6 mph 61 % 0.00 in
10:42 63.3 °F 49.2 °F 30.15 in WSW 8.1 mph 8.1 mph 60 % 0.00 in
10:47 63.7 °F 49.5 °F 30.15 in WSW 4.6 mph 4.6 mph 60 % 0.00 in
10:50 63.9 °F 49.2 °F 30.15 in WSW 8.1 mph 8.1 mph 59 % 0.00 in
10:51 63.9 °F 49.2 °F 30.15 in NW 9.2 mph 9.2 mph 59 % 0.00 in
10:55 63.9 °F 48.8 °F 30.18 in WSW 12.7 mph 12.7 mph 58 % 0.00 in
10:57 64.0 °F 49.0 °F 30.18 in WNW 8.1 mph 8.1 mph 58 % 0.00 in
11:02 64.4 °F 49.3 °F 30.18 in West 13.8 mph 13.8 mph 58 % 0.00 in
11:05 64.4 °F 48.8 °F 30.18 in West 6.0 mph 14.0 mph 57 % 0.00 in
11:10 64.6 °F 48.5 °F 30.18 in WSW 13.8 mph 13.8 mph 56 % 0.00 in
11:11 64.6 °F 48.5 °F 30.18 in WSW 13.8 mph 13.8 mph 56 % 0.00 in
11:16 64.8 °F 48.2 °F 30.18 in WSW 5.8 mph 5.8 mph 55 % 0.00 in
11:20 64.8 °F 48.2 °F 30.18 in WSW 8.1 mph 8.1 mph 55 % 0.00 in
11:25 64.9 °F 47.9 °F 30.12 in West 8.1 mph 8.1 mph 54 % 0.00 in
11:30 65.3 °F 48.2 °F 30.12 in West 4.6 mph 4.6 mph 54 % 0.00 in
11:35 65.5 °F 48.4 °F 30.12 in NNE 3.8 mph 3.8 mph 54 % 0.00 in
11:40 66.0 °F 48.9 °F 30.12 in ENE 4.9 mph 4.9 mph 54 % 0.00 in
11:41 66.0 °F 48.9 °F 30.12 in WSW 4.6 mph 4.6 mph 54 % 0.00 in
11:44 66.2 °F 48.6 °F 30.12 in SSW 3.5 mph 3.5 mph 53 % 0.00 in
11:46 66.2 °F 48.6 °F 30.12 in NW 10.2 mph 10.2 mph 53 % 0.00 in
11:51 66.2 °F 48.6 °F 30.12 in North 5.8 mph 5.8 mph 53 % 0.00 in
11:54 66.2 °F 48.0 °F 30.12 in SW 10.4 mph 10.4 mph 52 % 0.00 in
11:56 66.2 °F 48.0 °F 30.12 in WNW 7.4 mph 7.4 mph 52 % 0.00 in
12:01 66.2 °F 47.5 °F 30.12 in WSW 10.4 mph 10.4 mph 51 % 0.00 in
12:06 66.4 °F 47.7 °F 30.12 in WNW 10.4 mph 10.4 mph 51 % 0.00 in
12:07 66.4 °F 47.7 °F 30.12 in SW 10.4 mph 10.4 mph 51 % 0.00 in
12:08 66.4 °F 47.7 °F 30.12 in SW 9.2 mph 9.2 mph 51 % 0.00 in
12:13 66.2 °F 47.5 °F 30.12 in West 15.0 mph 15.0 mph 51 % 0.00 in
12:15 66.0 °F 47.4 °F 30.12 in West 17.3 mph 17.3 mph 51 % 0.00 in
12:16 66.0 °F 47.4 °F 30.12 in West 21.9 mph 21.9 mph 51 % 0.00 in
12:20 66.2 °F 47.5 °F 30.12 in West 10.4 mph 10.4 mph 51 % 0.00 in
12:25 66.4 °F 47.2 °F 30.09 in WSW 15.2 mph 15.2 mph 50 % 0.00 in
12:26 66.4 °F 47.2 °F 30.09 in West 9.2 mph 10.0 mph 50 % 0.00 in
12:28 66.4 °F 47.2 °F 30.09 in West 7.4 mph 7.4 mph 50 % 0.00 in
12:31 66.6 °F 47.3 °F 30.09 in WSW 15.0 mph 15.0 mph 50 % 0.00 in
12:36 66.6 °F 47.3 °F 30.09 in WSW 12.7 mph 12.7 mph 50 % 0.00 in
12:41 66.6 °F 47.3 °F 30.09 in WNW 11.5 mph 11.5 mph 50 % 0.00 in
12:42 66.6 °F 47.3 °F 30.09 in WSW 5.8 mph 5.8 mph 50 % 0.00 in
12:43 66.9 °F 47.7 °F 30.09 in SW 8.1 mph 8.1 mph 50 % 0.00 in
12:47 67.1 °F 47.8 °F 30.09 in WSW 12.3 mph 12.3 mph 50 % 0.00 in
12:50 67.1 °F 47.8 °F 30.09 in West 12.7 mph 12.7 mph 50 % 0.00 in
12:53 67.3 °F 48.0 °F 30.06 in WSW 10.4 mph 10.4 mph 50 % 0.00 in
12:58 67.8 °F 48.5 °F 30.06 in West 7.8 mph 7.8 mph 50 % 0.00 in
13:03 67.8 °F 48.0 °F 30.06 in WSW 12.7 mph 12.7 mph 49 % 0.00 in
13:08 67.6 °F 47.8 °F 30.06 in West 18.4 mph 18.4 mph 49 % 0.00 in
13:13 67.8 °F 48.0 °F 30.06 in WSW 12.7 mph 12.7 mph 49 % 0.00 in
13:17 67.6 °F 47.8 °F 30.06 in West 19.6 mph 19.6 mph 49 % 0.00 in
13:22 67.8 °F 48.0 °F 30.06 in West 11.5 mph 11.5 mph 49 % 0.00 in
13:23 67.8 °F 48.0 °F 30.06 in West 11.5 mph 11.5 mph 49 % 0.00 in
13:28 67.8 °F 48.0 °F 30.06 in West 10.4 mph 10.4 mph 49 % 0.00 in
13:33 68.0 °F 48.1 °F 30.06 in SW 10.4 mph 10.4 mph 49 % 0.00 in
13:36 67.8 °F 48.0 °F 30.06 in WSW 20.7 mph 20.7 mph 49 % 0.00 in
13:37 67.6 °F 47.8 °F 30.06 in WSW 20.7 mph 20.7 mph 49 % 0.00 in
13:38 68.0 °F 48.1 °F 30.06 in West 9.2 mph 9.2 mph 49 % 0.00 in
13:43 68.0 °F 48.1 °F 30.06 in WSW 11.5 mph 11.5 mph 49 % 0.00 in
13:44 68.0 °F 48.1 °F 30.06 in WSW 10.4 mph 10.4 mph 49 % 0.00 in
13:48 67.8 °F 48.0 °F 30.06 in WSW 13.8 mph 13.8 mph 49 % 0.00 in
13:49 67.6 °F 47.8 °F 30.06 in West 19.6 mph 19.6 mph 49 % 0.00 in
13:50 67.6 °F 47.8 °F 30.06 in WSW 19.6 mph 19.6 mph 49 % 0.00 in
13:53 67.6 °F 47.8 °F 30.06 in WSW 10.4 mph 10.4 mph 49 % 0.00 in
13:54 67.6 °F 47.8 °F 30.06 in West 9.2 mph 9.2 mph 49 % 0.00 in
13:55 67.6 °F 47.8 °F 30.06 in WSW 11.5 mph 11.5 mph 49 % 0.00 in
14:00 67.8 °F 48.0 °F 30.06 in SW 10.4 mph 10.4 mph 49 % 0.00 in
14:01 67.8 °F 48.0 °F 30.06 in West 13.0 mph 13.0 mph 49 % 0.00 in
14:06 67.8 °F 48.0 °F 30.06 in West 7.4 mph 7.4 mph 49 % 0.00 in
14:07 67.8 °F 48.0 °F 30.06 in West 7.4 mph 7.4 mph 49 % 0.00 in
14:12 67.8 °F 47.4 °F 30.06 in WSW 10.4 mph 10.4 mph 48 % 0.00 in
14:14 67.8 °F 47.4 °F 30.06 in West 6.9 mph 6.9 mph 48 % 0.00 in
14:15 67.8 °F 47.4 °F 30.06 in WSW 11.5 mph 11.5 mph 48 % 0.00 in
14:20 68.0 °F 47.6 °F 30.06 in West 9.0 mph 13.0 mph 48 % 0.00 in
14:24 68.0 °F 47.0 °F 30.06 in WNW 8.1 mph 8.1 mph 47 % 0.00 in
14:26 68.4 °F 47.9 °F 30.06 in WNW 9.2 mph 9.2 mph 48 % 0.00 in
14:27 68.4 °F 47.9 °F 30.06 in WSW 9.2 mph 9.2 mph 48 % 0.00 in
14:32 68.5 °F 47.5 °F 30.06 in WSW 8.1 mph 8.1 mph 47 % 0.00 in
14:35 68.7 °F 47.7 °F 30.06 in SW 10.5 mph 10.5 mph 47 % 0.00 in
14:40 68.9 °F 47.8 °F 30.06 in West 11.2 mph 11.2 mph 47 % 0.00 in
14:41 68.9 °F 47.8 °F 30.06 in West 11.5 mph 11.5 mph 47 % 0.00 in
14:42 68.9 °F 47.8 °F 30.06 in West 11.5 mph 11.5 mph 47 % 0.00 in
14:46 69.1 °F 48.0 °F 30.06 in West 8.1 mph 8.1 mph 47 % 0.00 in
14:47 69.1 °F 48.0 °F 30.06 in WNW 8.1 mph 8.1 mph 47 % 0.00 in
14:52 68.9 °F 47.3 °F 30.06 in WNW 5.8 mph 5.8 mph 46 % 0.00 in
14:57 69.3 °F 47.6 °F 30.06 in West 6.9 mph 6.9 mph 46 % 0.00 in
15:00 69.4 °F 47.8 °F 30.06 in West 10.0 mph 10.0 mph 46 % 0.00 in
15:01 69.6 °F 47.9 °F 30.06 in West 10.4 mph 10.4 mph 46 % 0.00 in
15:07 69.6 °F 47.3 °F 30.06 in West 15.0 mph 15.0 mph 45 % 0.00 in
15:12 69.4 °F 47.2 °F 30.06 in West 8.1 mph 8.1 mph 45 % 0.00 in
15:13 69.4 °F 46.6 °F 30.06 in WSW 10.4 mph 10.4 mph 44 % 0.00 in
15:15 69.4 °F 46.6 °F 30.06 in WNW 9.2 mph 9.2 mph 44 % 0.00 in
15:16 69.6 °F 46.7 °F 30.06 in WSW 8.1 mph 8.1 mph 44 % 0.00 in
15:21 69.4 °F 46.6 °F 30.06 in WSW 15.0 mph 15.0 mph 44 % 0.00 in
15:22 69.4 °F 46.6 °F 30.06 in WSW 15.0 mph 15.0 mph 44 % 0.00 in
15:25 69.4 °F 46.6 °F 30.06 in WNW 5.8 mph 6.2 mph 44 % 0.00 in
15:28 69.4 °F 46.6 °F 30.06 in WSW 8.1 mph 8.1 mph 44 % 0.00 in
15:35 69.3 °F 46.4 °F 30.06 in West 11.5 mph 11.5 mph 44 % 0.00 in
15:38 69.1 °F 45.6 °F 30.06 in WNW 15.0 mph 15.0 mph 43 % 0.00 in
15:43 69.1 °F 46.2 °F 30.06 in West 6.9 mph 6.9 mph 44 % 0.00 in
15:45 69.1 °F 46.2 °F 30.06 in WNW 9.2 mph 9.2 mph 44 % 0.00 in
15:49 68.9 °F 46.1 °F 30.06 in West 5.9 mph 5.9 mph 44 % 0.00 in
15:50 68.9 °F 46.1 °F 30.06 in SW 5.9 mph 5.9 mph 44 % 0.00 in
15:51 69.1 °F 46.2 °F 30.06 in NW 12.5 mph 12.5 mph 44 % 0.00 in
15:56 68.9 °F 46.1 °F 30.06 in West 5.8 mph 6.0 mph 44 % 0.00 in
16:05 68.7 °F 45.3 °F 30.06 in ENE 12.7 mph 12.7 mph 43 % 0.00 in
16:07 68.5 °F 45.1 °F 30.06 in WSW 8.7 mph 8.7 mph 43 % 0.00 in
16:12 68.0 °F 45.3 °F 30.06 in NW 6.9 mph 6.9 mph 44 % 0.00 in
16:14 68.0 °F 45.3 °F 30.06 in West 3.6 mph 3.6 mph 44 % 0.00 in
16:18 67.8 °F 45.1 °F 30.06 in West 5.8 mph 5.8 mph 44 % 0.00 in
16:20 67.6 °F 44.9 °F 30.06 in West 5.8 mph 5.8 mph 44 % 0.00 in
16:25 67.5 °F 44.8 °F 30.06 in WSW 6.4 mph 6.4 mph 44 % 0.00 in
16:26 67.5 °F 44.8 °F 30.06 in WNW 5.8 mph 5.8 mph 44 % 0.00 in
16:27 67.6 °F 44.9 °F 30.06 in WSW 8.1 mph 8.1 mph 44 % 0.00 in
16:32 67.8 °F 45.1 °F 30.06 in West 6.9 mph 6.9 mph 44 % 0.00 in
16:37 67.8 °F 45.1 °F 30.06 in WSW 7.4 mph 7.4 mph 44 % 0.00 in
16:42 67.8 °F 45.1 °F 30.06 in SW 6.9 mph 6.9 mph 44 % 0.00 in
16:47 67.6 °F 44.9 °F 30.06 in WNW 4.6 mph 4.6 mph 44 % 0.00 in
16:49 67.6 °F 44.9 °F 30.06 in SSW 10.4 mph 10.4 mph 44 % 0.00 in
16:52 67.5 °F 44.8 °F 30.06 in West 4.6 mph 4.6 mph 44 % 0.00 in
16:53 67.3 °F 44.6 °F 30.06 in WSW 8.7 mph 8.7 mph 44 % 0.00 in
16:54 67.3 °F 44.6 °F 30.06 in West 9.2 mph 9.2 mph 44 % 0.00 in
16:59 66.7 °F 44.1 °F 30.06 in SW 7.6 mph 7.6 mph 44 % 0.00 in
17:01 66.6 °F 44.0 °F 30.06 in West 8.1 mph 8.1 mph 44 % 0.00 in
17:05 66.4 °F 43.8 °F 30.06 in WSW 3.8 mph 3.8 mph 44 % 0.00 in
17:08 66.4 °F 44.4 °F 30.06 in SW 6.9 mph 6.9 mph 45 % 0.00 in
17:13 66.2 °F 44.2 °F 30.06 in WSW 6.0 mph 6.0 mph 45 % 0.00 in
17:18 65.8 °F 44.5 °F 30.06 in West 3.5 mph 3.5 mph 46 % 0.00 in
17:22 65.7 °F 44.3 °F 30.06 in WSW 3.5 mph 3.5 mph 46 % 0.00 in
17:23 65.7 °F 44.3 °F 30.06 in NW 2.3 mph 2.3 mph 46 % 0.00 in
17:27 65.5 °F 44.1 °F 30.06 in West 10.7 mph 10.7 mph 46 % 0.00 in
17:30 65.1 °F 43.8 °F 30.06 in WSW 6.9 mph 6.9 mph 46 % 0.00 in
17:31 65.1 °F 43.8 °F 30.06 in WSW 6.9 mph 6.9 mph 46 % 0.00 in
17:32 65.1 °F 43.8 °F 30.06 in WSW 4.9 mph 4.9 mph 46 % 0.00 in
17:37 64.9 °F 43.7 °F 30.06 in WSW 2.3 mph 2.3 mph 46 % 0.00 in
17:38 64.8 °F 43.5 °F 30.06 in West 2.3 mph 2.3 mph 46 % 0.00 in
17:43 64.6 °F 43.3 °F 30.06 in NNW 2.6 mph 2.6 mph 46 % 0.00 in
17:45 64.4 °F 43.2 °F 30.06 in West 2.6 mph 2.6 mph 46 % 0.00 in
17:46 64.4 °F 43.2 °F 30.06 in WNW 4.6 mph 4.6 mph 46 % 0.00 in
17:51 64.4 °F 43.7 °F 30.06 in NW 4.6 mph 4.6 mph 47 % 0.00 in
17:53 64.4 °F 43.7 °F 30.06 in NW 5.8 mph 5.8 mph 47 % 0.00 in
17:55 64.2 °F 43.6 °F 30.06 in West 2.3 mph 2.3 mph 47 % 0.00 in
17:57 64.0 °F 43.4 °F 30.06 in WNW 5.8 mph 5.8 mph 47 % 0.00 in
17:59 64.0 °F 43.4 °F 30.06 in NNW 3.5 mph 3.5 mph 47 % 0.00 in
18:04 63.9 °F 43.2 °F 30.06 in WNW 2.3 mph 2.3 mph 47 % 0.00 in
18:05 63.9 °F 43.2 °F 30.06 in WNW 4.6 mph 4.6 mph 47 % 0.00 in
18:10 63.7 °F 43.1 °F 30.06 in WSW 5.8 mph 5.8 mph 47 % 0.00 in
18:11 63.7 °F 43.1 °F 30.06 in WSW 5.8 mph 5.8 mph 47 % 0.00 in
18:16 63.7 °F 43.1 °F 30.06 in NW 3.5 mph 3.5 mph 47 % 0.00 in
18:18 63.5 °F 42.9 °F 30.06 in WSW 3.1 mph 3.1 mph 47 % 0.00 in
18:20 57.4 °F 39.4 °F 30.06 in WSW 3.0 mph 4.0 mph 51 % 0.00 in
18:21 63.7 °F 43.1 °F 30.06 in SW 3.8 mph 4.9 mph 47 % 0.00 in
18:22 63.7 °F 43.1 °F 30.06 in WSW 10.4 mph 10.4 mph 47 % 0.00 in
18:27 63.5 °F 42.9 °F 30.06 in WSW 2.3 mph 2.3 mph 47 % 0.00 in
18:28 63.5 °F 42.9 °F 30.06 in NW 2.9 mph 2.9 mph 47 % 0.00 in
18:32 63.3 °F 42.7 °F 30.06 in NW 1.2 mph   47 % 0.00 in
18:36 63.0 °F 43.0 °F 30.06 in NNW 4.6 mph 4.6 mph 48 % 0.00 in
18:40 56.3 °F 38.4 °F 30.03 in WSW 2.0 mph 3.0 mph 51 % 0.00 in
18:41 63.0 °F 43.0 °F 30.06 in SE 3.5 mph 3.5 mph 48 % 0.00 in
18:46 62.6 °F 42.6 °F 30.06 in SW 3.5 mph 3.5 mph 48 % 0.00 in
18:50 62.8 °F 42.8 °F 30.06 in ESE 8.1 mph 8.1 mph 48 % 0.00 in
18:55 62.8 °F 42.8 °F 30.09 in ESE 3.8 mph 3.8 mph 48 % 0.00 in
18:59 62.8 °F 42.8 °F 30.09 in ESE 5.8 mph 5.8 mph 48 % 0.00 in
19:00 55.9 °F 38.1 °F 30.03 in West 3.0 mph 4.0 mph 51 % 0.00 in
19:03 62.4 °F 43.0 °F 30.09 in SE 2.3 mph 2.3 mph 49 % 0.00 in
19:08 62.1 °F 42.7 °F 30.06 in Calm     49 % 0.00 in
19:10 62.1 °F 43.2 °F 30.06 in NNE 2.3 mph 2.4 mph 50 % 0.00 in
19:16 61.9 °F 43.0 °F 30.06 in ESE 4.5 mph 4.5 mph 50 % 0.00 in
19:20 55.9 °F 38.1 °F 29.97 in WSW 2.0 mph 3.0 mph 51 % 0.00 in
19:21 62.2 °F 43.4 °F 30.09 in East 2.3 mph 2.3 mph 50 % 0.00 in
19:23 62.2 °F 43.4 °F 30.09 in SSE 3.5 mph 3.5 mph 50 % 0.00 in
19:28 61.9 °F 43.0 °F 30.09 in ESE 3.1 mph 3.1 mph 50 % 0.00 in
19:30 61.9 °F 43.0 °F 30.09 in SSE 3.5 mph 3.5 mph 50 % 0.00 in
19:35 62.2 °F 43.4 °F 30.09 in West 4.0 mph 4.0 mph 50 % 0.00 in
19:38 62.2 °F 43.4 °F 30.09 in South 4.6 mph 4.6 mph 50 % 0.00 in
19:43 61.9 °F 43.0 °F 30.09 in SE 4.6 mph 4.6 mph 50 % 0.00 in
19:48 61.7 °F 42.9 °F 30.09 in SW 1.2 mph 1.2 mph 50 % 0.00 in
19:50 55.4 °F 38.1 °F 30.00 in WSW 1.0 mph 5.0 mph 52 % 0.00 in
19:53 61.3 °F 42.5 °F 30.09 in SW 2.3 mph 2.3 mph 50 % 0.00 in
19:59 61.3 °F 43.0 °F 30.09 in SE 3.5 mph 3.5 mph 51 % 0.00 in
20:00 61.3 °F 43.0 °F 30.09 in SW 2.4 mph 2.4 mph 51 % 0.00 in
20:01 61.3 °F 43.0 °F 30.09 in SSW 2.3 mph 2.6 mph 51 % 0.00 in
20:06 60.8 °F 42.5 °F 30.09 in ESE 3.6 mph 3.6 mph 51 % 0.00 in
20:10 61.0 °F 42.7 °F 30.09 in West 2.3 mph 2.3 mph 51 % 0.00 in
20:15 61.0 °F 42.7 °F 30.09 in WNW 3.5 mph 3.5 mph 51 % 0.00 in
20:18 61.0 °F 42.7 °F 30.09 in WSW 2.3 mph 2.3 mph 51 % 0.00 in
20:19 60.8 °F 42.5 °F 30.09 in SW 2.3 mph 2.3 mph 51 % 0.00 in
20:23 60.4 °F 42.2 °F 30.09 in SE 2.0 mph   51 % 0.00 in
20:24 60.3 °F 42.0 °F 30.09 in SE 2.3 mph 2.3 mph 51 % 0.00 in
20:29 60.8 °F 42.5 °F 30.09 in SW 2.4 mph 2.4 mph 51 % 0.00 in
20:33 60.4 °F 42.2 °F 30.09 in WSW 2.3 mph   51 % 0.00 in
20:35 60.6 °F 42.4 °F 30.09 in ESE 2.3 mph 2.3 mph 51 % 0.00 in
20:40 61.0 °F 42.7 °F 30.06 in SW 1.4 mph   51 % 0.00 in
20:43 60.4 °F 42.2 °F 30.06 in SW 2.3 mph 2.3 mph 51 % 0.00 in
20:44 60.3 °F 42.0 °F 30.06 in SW 2.3 mph 2.3 mph 51 % 0.00 in
20:49 59.9 °F 41.7 °F 30.06 in WNW 2.4 mph 2.4 mph 51 % 0.00 in
20:50 59.9 °F 41.7 °F 30.06 in WNW 2.3 mph 2.4 mph 51 % 0.00 in
20:56 59.9 °F 41.7 °F 30.06 in West 2.3 mph 2.3 mph 51 % 0.00 in
21:00 52.9 °F 36.2 °F 29.97 in SW 2.0 mph 3.0 mph 53 % 0.00 in
21:02 59.5 °F 41.9 °F 30.06 in WNW 2.3 mph 2.3 mph 52 % 0.00 in
21:06 59.4 °F 41.7 °F 30.06 in NNW 3.5 mph 3.5 mph 52 % 0.00 in
21:10 52.9 °F 36.2 °F 29.97 in SW 1.0 mph 3.0 mph 53 % 0.00 in
21:16 59.5 °F 41.9 °F 30.06 in West 3.5 mph 3.5 mph 52 % 0.00 in
21:17 59.5 °F 41.9 °F 30.06 in WSW 3.5 mph 3.5 mph 52 % 0.00 in
21:20 52.5 °F 35.9 °F 29.94 in SW 2.0 mph 4.0 mph 53 % 0.00 in
21:25 59.2 °F 41.6 °F 30.06 in WNW 2.4 mph 2.4 mph 52 % 0.00 in
21:27 59.2 °F 41.6 °F 30.06 in WNW 2.9 mph 2.9 mph 52 % 0.00 in
21:32 59.4 °F 41.7 °F 30.06 in WNW 2.3 mph 2.3 mph 52 % 0.00 in
21:33 59.4 °F 41.7 °F 30.06 in NW 2.3 mph 2.3 mph 52 % 0.00 in
21:38 59.4 °F 41.7 °F 30.06 in WNW 3.5 mph 3.5 mph 52 % 0.00 in
21:40 52.2 °F 36.0 °F 29.94 in Calm   2.0 mph 54 % 0.00 in
21:43 59.5 °F 41.9 °F 30.06 in West 2.4 mph 2.4 mph 52 % 0.00 in
21:47 59.7 °F 42.1 °F 30.06 in WNW 3.5 mph 3.5 mph 52 % 0.00 in
21:50 52.2 °F 36.0 °F 29.97 in WSW 1.0 mph 2.0 mph 54 % 0.00 in
21:52 59.5 °F 42.4 °F 30.06 in WSW 5.4 mph 5.4 mph 53 % 0.00 in
21:54 59.5 °F 42.4 °F 30.06 in WSW 3.1 mph 3.1 mph 53 % 0.00 in
21:55 59.7 °F 42.6 °F 30.06 in NW 5.8 mph 5.8 mph 53 % 0.00 in
21:59 59.5 °F 42.4 °F 30.06 in West 2.3 mph 2.3 mph 53 % 0.00 in
22:00 52.7 °F 36.5 °F 29.97 in WSW 3.0 mph 4.0 mph 54 % 0.00 in
22:06 59.7 °F 42.1 °F 30.09 in WNW 2.4 mph 2.4 mph 52 % 0.00 in
22:09 59.7 °F 42.1 °F 30.09 in NW 3.8 mph 3.8 mph 52 % 0.00 in
22:10 53.1 °F 36.8 °F 29.94 in WSW 2.0 mph 4.0 mph 54 % 0.00 in
22:14 59.7 °F 42.1 °F 30.09 in West 5.4 mph 5.4 mph 52 % 0.00 in
22:17 59.7 °F 42.1 °F 30.09 in WSW 4.6 mph 4.6 mph 52 % 0.00 in
22:20 53.4 °F 37.2 °F 29.94 in WSW 3.0 mph 6.0 mph 54 % 0.00 in
22:26 59.4 °F 41.7 °F 30.06 in WSW 3.5 mph 3.5 mph 52 % 0.00 in
22:28 59.4 °F 41.7 °F 30.06 in WSW 4.6 mph 4.6 mph 52 % 0.00 in
22:30 59.2 °F 41.6 °F 30.06 in NW 3.5 mph 3.5 mph 52 % 0.00 in
22:32 59.2 °F 41.6 °F 30.06 in WNW 5.8 mph 5.8 mph 52 % 0.00 in
22:33 59.2 °F 41.6 °F 30.06 in NW 5.8 mph 5.8 mph 52 % 0.00 in
22:34 59.2 °F 41.6 °F 30.06 in West 4.6 mph 4.6 mph 52 % 0.00 in
22:40 52.2 °F 36.0 °F 29.94 in SW 3.0 mph 4.0 mph 54 % 0.00 in
22:43 59.0 °F 41.4 °F 30.06 in West 4.6 mph 4.6 mph 52 % 0.00 in
22:44 59.0 °F 40.9 °F 30.06 in West 5.9 mph 5.9 mph 51 % 0.00 in
22:45 59.0 °F 40.9 °F 30.06 in WSW 5.8 mph 5.8 mph 51 % 0.00 in
22:46 59.0 °F 40.9 °F 30.06 in West 6.9 mph 6.9 mph 51 % 0.00 in
22:47 59.0 °F 40.9 °F 30.06 in West 6.9 mph 6.9 mph 51 % 0.00 in
22:48 59.0 °F 40.9 °F 30.06 in West 5.6 mph 5.6 mph 51 % 0.00 in
22:49 59.0 °F 40.9 °F 30.06 in ENE 5.8 mph 5.8 mph 51 % 0.00 in
22:50 52.0 °F 36.3 °F 29.91 in WSW 3.0 mph 4.0 mph 55 % 0.00 in
22:54 59.0 °F 40.9 °F 30.06 in WNW 5.8 mph 5.8 mph 51 % 0.00 in
22:55 59.0 °F 40.9 °F 30.06 in WSW 5.8 mph 5.8 mph 51 % 0.00 in
23:00 59.0 °F 40.9 °F 30.06 in West 5.0 mph 8.0 mph 51 % 0.00 in
23:06 58.6 °F 40.6 °F 30.06 in WSW 4.6 mph 4.6 mph 51 % 0.00 in
23:11 58.6 °F 40.6 °F 30.06 in West 4.6 mph 4.6 mph 51 % 0.00 in
23:16 58.5 °F 40.4 °F 30.06 in WSW 5.8 mph 5.8 mph 51 % 0.00 in
23:20 52.0 °F 36.3 °F 29.94 in SW 3.0 mph 3.0 mph 55 % 0.00 in
23:21 58.5 °F 40.4 °F 30.06 in WSW 5.8 mph 5.8 mph 51 % 0.00 in
23:24 58.3 °F 40.2 °F 30.06 in West 4.6 mph 4.6 mph 51 % 0.00 in
23:28 58.3 °F 40.2 °F 30.06 in West 10.4 mph 10.4 mph 51 % 0.00 in
23:30 52.0 °F 36.8 °F 29.94 in SW 3.0 mph 4.0 mph 56 % 0.00 in
23:34 58.3 °F 40.2 °F 30.06 in WNW 8.1 mph 8.1 mph 51 % 0.00 in
23:35 58.1 °F 40.1 °F 30.06 in NNW 5.8 mph 5.8 mph 51 % 0.00 in
23:40 57.9 °F 39.9 °F 30.06 in West 5.8 mph 5.8 mph 51 % 0.00 in
23:41 57.9 °F 39.9 °F 30.06 in WSW 5.8 mph 5.8 mph 51 % 0.00 in
23:46 57.9 °F 39.9 °F 30.06 in West 10.4 mph 10.4 mph 51 % 0.00 in
23:50 51.1 °F 35.9 °F 29.91 in WSW 3.0 mph 3.0 mph 56 % 0.00 in
23:51 57.9 °F 39.9 °F 30.06 in WSW 9.2 mph 9.2 mph 51 % 0.00 in
23:55 57.9 °F 39.9 °F 30.06 in West 3.5 mph 3.5 mph 51 % 0.00 in
Meteo Sesrovires
Elogis d' Weather Underground - 1.75 mb

Guio original per  Jim McMurry - jmcmurry@mwt.net Adaptat per a la plantilla per  Wim van der Kuil - Leuven-Template.eu

Trobareu la nostra informacio del temps tambe a:

Weather Underground

AWEKAS